Time,TemperatureF,DewpointF,PressureIn,WindDirection,WindDirectionDegrees,WindSpeedMPH,WindSpeedGustMPH,Humidity,HourlyPrecipIn,Conditions,Clouds,dailyrainin,SoftwareType,DateUTC
2013-10-09 00:14:00,50.0,45.0,30.29,West,276,0.0,0.0,82,0.00,,,0.77,,2013-10-09 04:14:00,
2013-10-09 00:24:00,50.0,44.0,30.29,West,276,0.0,0.0,81,0.00,,,0.00,,2013-10-09 04:24:00,
2013-10-09 00:34:00,50.0,44.0,30.29,West,276,0.0,0.0,81,0.00,,,0.00,,2013-10-09 04:34:00,
2013-10-09 00:44:00,50.0,44.0,30.29,West,276,0.0,0.0,81,0.00,,,0.00,,2013-10-09 04:44:00,
2013-10-09 00:54:00,50.0,45.0,30.29,West,276,0.0,0.0,83,0.00,,,0.00,,2013-10-09 04:54:00,
2013-10-09 01:13:00,50.0,45.0,30.29,West,276,0.0,0.0,82,0.00,,,0.00,,2013-10-09 05:13:00,
2013-10-09 01:22:00,50.0,45.0,30.29,West,276,0.0,0.0,82,0.00,,,0.00,,2013-10-09 05:22:00,
2013-10-09 01:34:00,50.0,45.0,30.29,West,276,0.0,0.0,82,0.00,,,0.00,,2013-10-09 05:34:00,
2013-10-09 02:12:00,49.0,45.0,30.28,WNW,300,0.0,0.0,86,0.00,,,0.00,,2013-10-09 06:12:00,
2013-10-09 02:22:00,49.0,45.0,30.28,WNW,300,0.0,0.0,86,0.00,,,0.00,,2013-10-09 06:22:00,
2013-10-09 02:42:00,49.0,45.0,30.29,WNW,300,0.0,0.0,85,0.00,,,0.00,,2013-10-09 06:42:00,
2013-10-09 02:52:00,49.0,45.0,30.29,WNW,300,0.0,0.0,85,0.00,,,0.00,,2013-10-09 06:52:00,
2013-10-09 03:02:00,49.0,45.0,30.29,WNW,300,0.0,0.0,85,0.00,,,0.00,,2013-10-09 07:02:00,
2013-10-09 04:53:00,48.0,45.0,30.27,NE,48,0.0,0.0,89,0.00,,,0.00,,2013-10-09 08:53:00,
2013-10-09 05:43:00,48.0,45.0,30.27,NE,48,0.0,0.0,89,0.00,,,0.00,,2013-10-09 09:43:00,
2013-10-09 06:13:00,48.0,46.0,30.28,NE,48,0.0,0.0,92,0.00,,,0.00,,2013-10-09 10:13:00,
2013-10-09 06:23:00,48.0,46.0,30.28,NE,48,0.0,0.0,92,0.00,,,0.00,,2013-10-09 10:23:00,
2013-10-09 10:52:00,57.0,48.0,30.34,North,359,0.0,0.0,72,0.00,,,0.00,,2013-10-09 14:52:00,
2013-10-09 11:02:00,57.0,48.0,30.34,North,359,0.0,0.0,72,0.00,,,0.00,,2013-10-09 15:02:00,
2013-10-09 11:11:00,57.0,48.0,30.34,North,359,0.0,0.0,72,0.00,,,0.00,,2013-10-09 15:11:00,
2013-10-09 12:24:00,66.0,46.0,30.32,NNE,18,4.0,4.0,49,0.00,,,0.00,,2013-10-09 16:24:00,
2013-10-09 13:22:00,68.0,43.0,30.30,SE,125,0.0,0.0,40,0.00,,,0.00,,2013-10-09 17:22:00,
2013-10-09 13:42:00,69.0,42.0,30.30,NNE,20,1.0,0.0,38,0.00,,,0.00,,2013-10-09 17:42:00,
2013-10-09 14:22:00,71.0,38.0,30.28,ENE,73,0.0,0.0,30,0.00,,,0.00,,2013-10-09 18:22:00,
2013-10-09 14:42:00,71.0,38.0,30.28,ENE,72,3.0,4.0,30,0.00,,,0.00,,2013-10-09 18:42:00,
2013-10-09 14:52:00,71.0,38.0,30.28,ENE,72,3.0,4.0,30,0.00,,,0.00,,2013-10-09 18:52:00,
2013-10-09 15:11:00,70.0,41.0,30.27,ENE,75,0.0,0.0,35,0.00,,,0.00,,2013-10-09 19:11:00,
2013-10-09 15:22:00,69.0,42.0,30.27,ENE,58,0.0,0.0,38,0.00,,,0.00,,2013-10-09 19:22:00,
2013-10-09 15:42:00,68.0,41.0,30.27,ENE,58,0.0,0.0,37,0.00,,,0.00,,2013-10-09 19:42:00,
2013-10-09 15:53:00,69.0,39.0,30.27,East,87,5.0,5.0,34,0.00,,,0.00,,2013-10-09 19:53:00,
2013-10-09 16:22:00,69.0,40.0,30.27,ESE,103,1.0,0.0,35,0.00,,,0.00,,2013-10-09 20:22:00,
2013-10-09 16:43:00,68.0,41.0,30.27,ENE,69,0.0,0.0,37,0.00,,,0.00,,2013-10-09 20:43:00,
2013-10-09 16:52:00,67.0,41.0,30.26,NE,51,0.0,0.0,38,0.00,,,0.00,,2013-10-09 20:52:00,
2013-10-09 17:02:00,67.0,41.0,30.26,NE,51,0.0,0.0,38,0.00,,,0.00,,2013-10-09 21:02:00,
2013-10-09 17:22:00,66.0,42.0,30.26,ENE,77,0.0,0.0,41,0.00,,,0.00,,2013-10-09 21:22:00,
2013-10-09 17:44:00,65.0,39.0,30.26,East,79,0.0,0.0,39,0.00,,,0.00,,2013-10-09 21:44:00,
2013-10-09 17:54:00,64.0,39.0,30.26,ESE,113,3.0,8.0,40,0.00,,,0.00,,2013-10-09 21:54:00,
2013-10-09 18:03:00,64.0,39.0,30.26,ESE,113,3.0,8.0,40,0.00,,,0.00,,2013-10-09 22:03:00,
2013-10-09 18:24:00,62.0,39.0,30.26,ENE,65,0.0,0.0,43,0.00,,,0.00,,2013-10-09 22:24:00,
2013-10-09 18:43:00,61.0,38.0,30.26,ENE,65,0.0,0.0,43,0.00,,,0.00,,2013-10-09 22:43:00,
2013-10-09 18:53:00,59.0,41.0,30.26,ENE,65,0.0,0.0,52,0.00,,,0.00,,2013-10-09 22:53:00,
2013-10-09 19:22:00,57.0,42.0,30.26,ENE,65,0.0,0.0,58,0.00,,,0.00,,2013-10-09 23:22:00,
2013-10-09 19:53:00,56.0,43.0,30.26,ENE,65,0.0,0.0,61,0.00,,,0.00,,2013-10-09 23:53:00,
2013-10-09 20:12:00,56.0,44.0,30.26,ENE,65,0.0,0.0,64,0.00,,,0.00,,2013-10-10 00:12:00,
2013-10-09 20:22:00,56.0,45.0,30.26,ENE,65,0.0,0.0,66,0.00,,,0.00,,2013-10-10 00:22:00,
2013-10-09 20:42:00,56.0,45.0,30.26,ENE,65,0.0,0.0,67,0.00,,,0.00,,2013-10-10 00:42:00,
2013-10-09 20:52:00,55.0,45.0,30.26,ENE,65,0.0,0.0,68,0.00,,,0.00,,2013-10-10 00:52:00,
2013-10-09 21:11:00,55.0,45.0,30.26,ENE,65,0.0,0.0,70,0.00,,,0.00,,2013-10-10 01:11:00,
2013-10-09 21:21:00,55.0,46.0,30.26,ENE,65,0.0,0.0,71,0.00,,,0.00,,2013-10-10 01:21:00,
2013-10-09 21:42:00,54.0,46.0,30.26,ENE,65,0.0,0.0,75,0.00,,,0.00,,2013-10-10 01:42:00,
2013-10-09 21:52:00,54.0,46.0,30.26,ENE,65,0.0,0.0,75,0.00,,,0.00,,2013-10-10 01:52:00,
2013-10-09 22:02:00,54.0,46.0,30.26,ENE,65,0.0,0.0,75,0.00,,,0.00,,2013-10-10 02:02:00,
2013-10-09 22:12:00,54.0,46.0,30.26,ENE,65,0.0,0.0,75,0.00,,,0.00,,2013-10-10 02:12:00,
2013-10-09 23:22:00,52.0,44.0,30.25,North,0,0.0,0.0,73,0.00,,,0.00,,2013-10-10 03:22:00,
2013-10-09 23:34:00,52.0,44.0,30.25,North,0,0.0,0.0,73,0.00,,,0.00,,2013-10-10 03:34:00,
2013-10-09 23:44:00,52.0,44.0,30.25,North,0,0.0,0.0,73,0.00,,,0.00,,2013-10-10 03:44:00,
2013-10-09 23:54:00,55.0,41.0,30.24,East,100,1.0,0.0,60,0.00,,,0.00,,2013-10-10 03:54:00,